Time;durP1;ratioP1;P1;durP2;ratioP2;P2;SDS_P1;SDS_P2;PMS_P1;PMS_P2;Temp;Humidity;BMP_temperature;BMP_pressure;BME280_temperature;BME280_humidity;BME280_pressure;Samples;Min_cycle;Max_cycle;Signal;HPM_P1;HPM_P2
2023/08/03 00:02:00;;;;;;;2.40;1.80;;;24.50;56.10;;;;;;4994953;28;20181;-72
2023/08/03 00:04:25;;;;;;;2.13;1.77;;;24.50;56.00;;;;;;4994932;28;20251;-73
2023/08/03 00:06:51;;;;;;;2.10;1.50;;;24.50;56.10;;;;;;4994865;28;20207;-73
2023/08/03 00:09:16;;;;;;;2.23;1.40;;;24.50;56.00;;;;;;4994825;28;20669;-73
2023/08/03 00:11:42;;;;;;;2.43;1.60;;;24.50;56.00;;;;;;4994856;28;20181;-73
2023/08/03 00:14:07;;;;;;;2.40;1.50;;;24.50;56.00;;;;;;4994702;28;20200;-73
2023/08/03 00:16:33;;;;;;;1.87;1.30;;;24.50;56.00;;;;;;4994704;28;20661;-72
2023/08/03 00:18:58;;;;;;;2.17;1.87;;;24.50;56.00;;;;;;4994617;28;20181;-73
2023/08/03 00:21:24;;;;;;;2.47;1.33;;;24.50;56.00;;;;;;4994642;28;20192;-72
2023/08/03 00:23:49;;;;;;;2.13;1.67;;;24.50;56.00;;;;;;4994492;28;20667;-73
2023/08/03 00:26:15;;;;;;;2.13;1.60;;;24.50;56.00;;;;;;4993693;28;20227;-73
2023/08/03 00:28:42;;;;;;;2.70;1.60;;;24.50;56.00;;;;;;4994464;28;20291;-74
2023/08/03 00:31:07;;;;;;;2.30;1.60;;;24.50;55.90;;;;;;4994392;28;20173;-74
2023/08/03 00:34:20;;;;;;;2.00;1.50;;;24.50;56.00;;;;;;4994457;28;20420;-73
2023/08/03 00:39:21;;;;;;;2.50;1.57;;;24.50;56.00;;;;;;5823900;22;20487;-73
2023/08/03 00:41:46;;;;;;;3.77;1.80;;;24.50;56.10;;;;;;5013727;28;20438;-72
2023/08/03 00:44:12;;;;;;;2.70;1.40;;;24.50;56.10;;;;;;5013797;28;20180;-72
2023/08/03 00:46:37;;;;;;;2.67;1.40;;;24.50;56.00;;;;;;4995983;28;20299;-73
2023/08/03 00:49:03;;;;;;;2.80;1.47;;;24.50;56.00;;;;;;5013665;28;20188;-73
2023/08/03 00:51:29;;;;;;;3.03;1.67;;;24.50;56.00;;;;;;5013908;28;20279;-73
2023/08/03 00:53:55;;;;;;;2.33;1.73;;;24.50;56.00;;;;;;5013540;28;20783;-73
2023/08/03 00:56:21;;;;;;;2.87;1.90;;;24.50;55.90;;;;;;5013520;28;20187;-73
2023/08/03 00:58:46;;;;;;;2.67;1.60;;;24.50;55.90;;;;;;5013458;28;20800;-73
2023/08/03 01:01:12;;;;;;;4.70;1.60;;;24.50;56.00;;;;;;4995865;28;20180;-73
2023/08/03 01:03:38;;;;;;;2.00;1.30;;;24.50;55.90;;;;;;5013373;28;20176;-73
2023/08/03 01:06:03;;;;;;;2.03;1.70;;;24.50;55.90;;;;;;5013312;28;20203;-73
2023/08/03 01:08:29;;;;;;;3.03;1.37;;;24.50;55.90;;;;;;5013257;28;20196;-73
2023/08/03 01:10:55;;;;;;;2.73;1.50;;;24.50;55.90;;;;;;5013260;28;20200;-73
2023/08/03 01:13:21;;;;;;;1.70;1.40;;;24.50;55.90;;;;;;5013263;28;20227;-73
2023/08/03 01:15:47;;;;;;;2.97;1.50;;;24.50;55.90;;;;;;5013146;28;20172;-73
2023/08/03 01:18:13;;;;;;;2.00;1.50;;;24.50;55.90;;;;;;5013107;28;20422;-73
2023/08/03 01:20:41;;;;;;;2.67;1.40;;;24.50;55.80;;;;;;5013094;28;20196;-73
2023/08/03 01:23:08;;;;;;;1.60;1.33;;;24.50;55.80;;;;;;5013062;28;20176;-73
2023/08/03 01:25:34;;;;;;;2.60;1.87;;;24.50;55.80;;;;;;5013145;28;20431;-73
2023/08/03 01:28:00;;;;;;;2.30;1.70;;;24.50;55.80;;;;;;5013001;28;20411;-73
2023/08/03 01:30:26;;;;;;;2.00;1.50;;;24.50;55.80;;;;;;5012877;28;20431;-73
2023/08/03 01:32:51;;;;;;;1.80;1.33;;;24.50;55.80;;;;;;5012805;28;20195;-74
2023/08/03 01:35:18;;;;;;;2.17;1.40;;;24.50;55.80;;;;;;5012828;28;20183;-74
2023/08/03 01:37:44;;;;;;;4.83;2.23;;;24.50;55.80;;;;;;5012799;28;20169;-74
2023/08/03 01:40:13;;;;;;;2.87;1.80;;;24.50;55.80;;;;;;5012737;28;20481;-73
2023/08/03 01:42:39;;;;;;;2.30;1.67;;;24.50;55.80;;;;;;5012795;28;20196;-73
2023/08/03 01:45:06;;;;;;;2.30;1.60;;;24.50;55.80;;;;;;5012961;28;21034;-73
2023/08/03 01:47:32;;;;;;;2.33;1.30;;;24.50;55.80;;;;;;5012548;28;20455;-73
2023/08/03 01:49:58;;;;;;;2.90;1.40;;;24.50;55.80;;;;;;4994816;28;20927;-73
2023/08/03 01:52:23;;;;;;;2.60;1.30;;;24.50;55.90;;;;;;5012852;28;20510;-73
2023/08/03 01:54:49;;;;;;;3.87;2.07;;;24.50;55.80;;;;;;5012453;28;20176;-73
2023/08/03 01:57:17;;;;;;;3.37;2.10;;;24.50;55.80;;;;;;5012558;28;20176;-73
2023/08/03 01:59:44;;;;;;;5.20;1.87;;;24.40;55.60;;;;;;5012346;28;20192;-73
2023/08/03 02:02:09;;;;;;;2.70;1.57;;;24.40;55.60;;;;;;5012399;28;20609;-73
2023/08/03 02:04:35;;;;;;;4.80;1.80;;;24.40;55.50;;;;;;5012407;28;20420;-73
2023/08/03 02:07:15;;;;;;;5.73;2.40;;;24.40;55.50;;;;;;5012332;28;20683;-73
2023/08/03 02:09:41;;;;;;;4.40;2.20;;;24.40;55.40;;;;;;5012252;28;20684;-73
2023/08/03 02:12:07;;;;;;;3.50;1.90;;;24.40;55.40;;;;;;5012360;28;20462;-74
2023/08/03 02:14:33;;;;;;;4.97;2.43;;;24.40;55.30;;;;;;5012338;28;20180;-73
2023/08/03 02:16:59;;;;;;;7.10;2.00;;;24.40;55.30;;;;;;5012286;28;20843;-73
2023/08/03 02:19:24;;;;;;;5.20;2.00;;;24.40;55.20;;;;;;5012434;28;20220;-73
2023/08/03 02:21:50;;;;;;;6.03;2.27;;;24.40;55.20;;;;;;5012240;28;20254;-73
2023/08/03 02:24:15;;;;;;;5.50;2.17;;;24.40;55.10;;;;;;5012230;28;20218;-73
2023/08/03 02:26:41;;;;;;;5.83;1.90;;;24.40;55.10;;;;;;5012134;28;20290;-73
2023/08/03 02:29:07;;;;;;;3.63;1.70;;;24.30;55.00;;;;;;5012068;28;20212;-74
2023/08/03 02:31:32;;;;;;;4.40;2.13;;;24.40;55.00;;;;;;4994505;28;20184;-73
2023/08/03 02:33:58;;;;;;;5.13;2.17;;;24.30;55.00;;;;;;5012159;28;20599;-73
2023/08/03 02:36:23;;;;;;;5.57;1.87;;;24.30;55.00;;;;;;5012161;28;20172;-73
2023/08/03 02:38:49;;;;;;;3.83;1.97;;;24.30;55.00;;;;;;4994452;28;20204;-73
2023/08/03 02:41:14;;;;;;;7.07;1.80;;;24.30;55.00;;;;;;5011935;28;20230;-73
2023/08/03 02:43:40;;;;;;;4.20;1.83;;;24.30;55.00;;;;;;5012121;28;20238;-73
2023/08/03 02:46:06;;;;;;;6.90;2.20;;;24.30;55.00;;;;;;5011948;28;20199;-74
2023/08/03 02:48:32;;;;;;;3.80;1.70;;;24.30;55.00;;;;;;5011961;28;20482;-73
2023/08/03 02:50:57;;;;;;;3.27;1.67;;;24.30;55.00;;;;;;5015291;28;20176;-73
2023/08/03 02:53:23;;;;;;;5.07;1.83;;;24.30;55.00;;;;;;4998233;28;20183;-74
2023/08/03 02:55:50;;;;;;;3.53;1.60;;;24.30;55.00;;;;;;4998444;28;20180;-73
2023/08/03 02:58:15;;;;;;;7.00;2.07;;;24.30;55.00;;;;;;5015699;28;20176;-73
2023/08/03 03:00:41;;;;;;;3.47;1.90;;;24.30;55.00;;;;;;5015742;28;20411;-73
2023/08/03 03:03:07;;;;;;;3.13;1.73;;;24.30;55.00;;;;;;5015670;28;20251;-73
2023/08/03 03:05:32;;;;;;;4.43;1.50;;;24.30;55.00;;;;;;5015522;28;20553;-73
2023/08/03 03:07:58;;;;;;;4.13;1.87;;;24.30;55.00;;;;;;5015600;28;20176;-73
2023/08/03 03:10:24;;;;;;;5.37;2.77;;;24.30;55.00;;;;;;5015477;28;20189;-74
2023/08/03 03:12:49;;;;;;;2.70;1.40;;;24.30;54.90;;;;;;5015988;28;20637;-73
2023/08/03 03:15:15;;;;;;;3.40;1.90;;;24.30;54.90;;;;;;5015379;28;20676;-73
2023/08/03 03:17:42;;;;;;;4.47;1.70;;;24.30;54.80;;;;;;5015338;28;20246;-73
2023/08/03 03:20:08;;;;;;;2.97;1.37;;;24.30;54.80;;;;;;5015327;28;20723;-73
2023/08/03 03:22:35;;;;;;;2.80;1.80;;;24.30;54.80;;;;;;5015294;28;20446;-73
2023/08/03 03:25:02;;;;;;;2.90;1.60;;;24.30;54.80;;;;;;5015225;28;20493;-73
2023/08/03 03:27:28;;;;;;;3.80;1.87;;;24.30;54.80;;;;;;5015119;28;20457;-73
2023/08/03 03:29:53;;;;;;;3.30;1.67;;;24.30;54.80;;;;;;4997482;28;20434;-73
2023/08/03 03:32:19;;;;;;;5.13;2.30;;;24.20;54.70;;;;;;5015091;28;20657;-73
2023/08/03 03:34:44;;;;;;;4.93;2.43;;;24.20;54.70;;;;;;5015111;28;20238;-73
2023/08/03 03:37:10;;;;;;;3.00;1.83;;;24.20;54.70;;;;;;5015025;28;20177;-72
2023/08/03 03:39:36;;;;;;;4.80;1.87;;;24.20;54.70;;;;;;5015282;28;20599;-73
2023/08/03 03:42:01;;;;;;;4.03;1.83;;;24.20;54.70;;;;;;5014910;28;20541;-73
2023/08/03 03:44:27;;;;;;;2.70;1.70;;;24.20;54.60;;;;;;5014912;28;20182;-73
2023/08/03 03:46:52;;;;;;;3.60;1.70;;;24.30;54.70;;;;;;4997328;28;20250;-72
2023/08/03 03:49:18;;;;;;;2.93;1.60;;;24.20;54.60;;;;;;5014763;28;20195;-73
2023/08/03 03:51:43;;;;;;;1.80;1.10;;;24.20;54.60;;;;;;5014773;28;20668;-73
2023/08/03 03:54:09;;;;;;;2.67;1.63;;;24.20;54.60;;;;;;5014705;28;20176;-73
2023/08/03 03:56:35;;;;;;;3.00;1.10;;;24.20;54.60;;;;;;5014727;28;20172;-73
2023/08/03 03:59:00;;;;;;;3.60;1.30;;;24.20;54.60;;;;;;5014577;28;20660;-73
2023/08/03 04:01:26;;;;;;;3.30;1.67;;;24.20;54.60;;;;;;5013368;28;20226;-71
2023/08/03 04:03:52;;;;;;;4.03;1.50;;;24.20;54.60;;;;;;5014541;28;20175;-73
2023/08/03 04:06:17;;;;;;;3.60;1.30;;;24.30;54.60;;;;;;5014386;28;20565;-72
2023/08/03 04:08:43;;;;;;;3.23;1.40;;;24.20;54.50;;;;;;5014324;28;20201;-73
2023/08/03 04:11:08;;;;;;;3.20;1.60;;;24.20;54.50;;;;;;5014396;28;20181;-73
2023/08/03 04:13:34;;;;;;;4.37;1.43;;;24.20;54.40;;;;;;5014493;28;20239;-73
2023/08/03 04:16:00;;;;;;;3.10;1.67;;;24.20;54.40;;;;;;5014342;28;20184;-73
2023/08/03 04:18:27;;;;;;;3.10;1.30;;;24.20;54.40;;;;;;5014134;28;20549;-73
2023/08/03 04:20:53;;;;;;;4.93;1.50;;;24.20;54.40;;;;;;5014195;28;20176;-73
2023/08/03 04:23:19;;;;;;;2.27;1.40;;;24.20;54.90;;;;;;5014135;28;20422;-73
2023/08/03 04:25:44;;;;;;;3.43;1.50;;;24.20;54.40;;;;;;5014049;28;20423;-73
2023/08/03 04:28:10;;;;;;;3.20;1.40;;;24.20;54.40;;;;;;5014020;28;20234;-72
2023/08/03 04:30:36;;;;;;;5.90;1.77;;;24.20;54.40;;;;;;5014211;28;20200;-73
2023/08/03 04:33:01;;;;;;;4.10;1.90;;;24.20;54.40;;;;;;5013899;28;20645;-73
2023/08/03 04:35:27;;;;;;;5.23;1.80;;;24.20;54.40;;;;;;5013947;28;20177;-73
2023/08/03 04:37:52;;;;;;;2.50;1.50;;;24.20;54.40;;;;;;5014159;28;20264;-73
2023/08/03 04:40:18;;;;;;;4.93;1.30;;;24.20;54.40;;;;;;5013674;28;20256;-73
2023/08/03 04:42:44;;;;;;;2.47;1.47;;;24.20;54.40;;;;;;5013718;28;20172;-73
2023/08/03 04:45:09;;;;;;;3.17;1.60;;;24.20;54.40;;;;;;5013758;28;20180;-73
2023/08/03 04:47:35;;;;;;;3.60;1.60;;;24.20;54.30;;;;;;4996119;28;20271;-73
2023/08/03 04:50:00;;;;;;;3.80;1.30;;;24.20;54.30;;;;;;5013635;28;20552;-73
2023/08/03 04:52:26;;;;;;;2.77;1.27;;;24.10;54.20;;;;;;5013618;28;20200;-73
2023/08/03 04:54:51;;;;;;;2.73;1.43;;;24.20;54.10;;;;;;5013548;28;20191;-72
2023/08/03 04:57:17;;;;;;;2.30;1.10;;;24.20;54.10;;;;;;4995898;28;20622;-72
2023/08/03 04:59:43;;;;;;;4.50;1.60;;;24.10;53.90;;;;;;5013673;28;20196;-73
2023/08/03 05:02:08;;;;;;;1.83;1.20;;;24.10;53.90;;;;;;5013426;28;20199;-73
2023/08/03 05:04:34;;;;;;;3.03;2.00;;;24.10;53.90;;;;;;5013387;28;20176;-73
2023/08/03 05:06:59;;;;;;;4.33;1.53;;;24.10;53.90;;;;;;5013349;28;20208;-72
2023/08/03 05:09:26;;;;;;;4.90;1.40;;;24.20;53.90;;;;;;4995656;28;20560;-73
2023/08/03 05:11:51;;;;;;;2.77;1.20;;;24.10;53.80;;;;;;5013312;28;20522;-73
2023/08/03 05:14:17;;;;;;;5.00;1.40;;;24.10;53.70;;;;;;5013213;28;20418;-73
2023/08/03 05:16:42;;;;;;;1.87;1.10;;;24.20;53.70;;;;;;5013164;28;20179;-73
2023/08/03 05:19:08;;;;;;;2.30;1.27;;;24.10;53.50;;;;;;5013054;28;20196;-74
2023/08/03 05:21:34;;;;;;;2.70;1.20;;;24.10;53.50;;;;;;4995703;28;20203;-72
2023/08/03 05:23:59;;;;;;;6.17;1.53;;;24.10;53.40;;;;;;5013028;28;20188;-73
2023/08/03 05:26:26;;;;;;;4.07;1.23;;;24.10;53.40;;;;;;4995190;28;20211;-73
2023/08/03 05:28:52;;;;;;;2.50;1.10;;;24.10;53.40;;;;;;5012944;28;20211;-73
2023/08/03 05:31:17;;;;;;;5.70;2.10;;;24.10;53.40;;;;;;5012882;28;20831;-72
2023/08/03 05:33:43;;;;;;;9.40;2.23;;;24.20;53.50;;;;;;5012770;28;20207;-73
2023/08/03 05:36:09;;;;;;;7.10;2.37;;;24.10;53.50;;;;;;5012569;28;20181;-73
2023/08/03 05:38:34;;;;;;;5.27;1.50;;;24.10;53.50;;;;;;5012656;28;20645;-73
2023/08/03 05:41:00;;;;;;;4.43;1.50;;;24.10;53.60;;;;;;5012619;28;20435;-73
2023/08/03 05:43:27;;;;;;;7.37;1.60;;;24.10;53.60;;;;;;5012675;28;20203;-72
2023/08/03 05:46:00;;;;;;;3.83;1.63;;;24.10;53.70;;;;;;5012574;28;20413;-73
2023/08/03 05:48:29;;;;;;;3.83;1.50;;;24.10;53.70;;;;;;4994899;28;20411;-73
2023/08/03 05:50:56;;;;;;;4.23;1.60;;;24.10;54.30;;;;;;5011791;28;20403;-73
2023/08/03 05:53:22;;;;;;;3.63;1.70;;;24.10;53.80;;;;;;5011118;28;20506;-73
2023/08/03 05:55:48;;;;;;;4.43;2.00;;;24.10;53.80;;;;;;5011638;28;20859;-73
2023/08/03 05:58:15;;;;;;;2.93;1.60;;;24.10;53.90;;;;;;5011044;28;20226;-73
2023/08/03 06:00:45;;;;;;;2.57;1.10;;;24.10;53.90;;;;;;5010482;28;20591;-72
2023/08/03 06:03:15;;;;;;;5.17;1.20;;;24.10;53.90;;;;;;5010560;28;20414;-73
2023/08/03 06:05:47;;;;;;;4.20;1.50;;;24.10;54.00;;;;;;5010744;28;20934;-73
2023/08/03 06:08:20;;;;;;;4.20;1.63;;;24.10;54.00;;;;;;5012293;28;20410;-73
2023/08/03 06:10:52;;;;;;;2.53;1.30;;;24.10;54.00;;;;;;5012282;28;20414;-73
2023/08/03 06:13:21;;;;;;;4.43;1.37;;;24.10;54.00;;;;;;5012276;28;21042;-73
2023/08/03 06:15:48;;;;;;;3.60;1.60;;;24.10;54.60;;;;;;5012321;28;20442;-73
2023/08/03 06:18:20;;;;;;;2.80;1.10;;;24.10;54.10;;;;;;5012249;28;20939;-72
2023/08/03 06:20:48;;;;;;;5.60;1.43;;;24.20;54.20;;;;;;5012147;28;20411;-73
2023/08/03 06:23:22;;;;;;;2.23;1.50;;;24.10;54.10;;;;;;5012227;28;20776;-71
2023/08/03 06:25:49;;;;;;;1.70;1.10;;;24.10;54.10;;;;;;5011580;28;20407;-73
2023/08/03 06:28:17;;;;;;;3.60;1.20;;;24.10;54.20;;;;;;5012178;28;20419;-73
2023/08/03 06:30:47;;;;;;;6.83;1.70;;;24.20;54.80;;;;;;5012225;28;20404;-73
2023/08/03 06:33:18;;;;;;;5.30;2.10;;;24.20;54.30;;;;;;5012226;28;20927;-73
2023/08/03 06:35:46;;;;;;;2.50;1.40;;;24.20;54.30;;;;;;5012438;28;20406;-72
2023/08/03 06:38:18;;;;;;;3.70;1.60;;;24.20;54.30;;;;;;5012019;28;20403;-73
2023/08/03 06:40:46;;;;;;;5.30;1.50;;;24.20;54.30;;;;;;4993307;28;20967;-73
2023/08/03 06:43:13;;;;;;;3.63;1.40;;;24.20;54.30;;;;;;4994400;28;20407;-72
2023/08/03 06:45:40;;;;;;;3.93;1.03;;;24.20;54.30;;;;;;5011958;28;20410;-73
2023/08/03 06:48:07;;;;;;;3.87;1.30;;;24.20;54.30;;;;;;5012023;28;20407;-73
2023/08/03 06:50:33;;;;;;;4.13;1.20;;;24.20;54.30;;;;;;5011780;28;20442;-73
2023/08/03 06:52:59;;;;;;;3.50;1.20;;;24.20;54.30;;;;;;5012008;28;20396;-73
2023/08/03 06:55:25;;;;;;;3.33;1.37;;;24.20;54.30;;;;;;5011937;28;20251;-71
2023/08/03 06:57:51;;;;;;;4.87;1.20;;;24.20;54.30;;;;;;5011844;28;20939;-72
2023/08/03 07:00:17;;;;;;;4.37;1.37;;;24.20;54.30;;;;;;4994192;28;20196;-71
2023/08/03 07:02:45;;;;;;;1.83;1.10;;;24.20;54.30;;;;;;5011793;28;20419;-71
2023/08/03 07:05:10;;;;;;;2.30;1.30;;;24.20;54.40;;;;;;4994192;28;20271;-71
2023/08/03 07:07:36;;;;;;;1.40;1.07;;;24.20;54.40;;;;;;5011881;28;20549;-72
2023/08/03 07:10:02;;;;;;;2.17;1.33;;;24.20;54.40;;;;;;5011767;28;20726;-71
2023/08/03 07:12:28;;;;;;;2.40;1.33;;;24.30;54.40;;;;;;5011824;28;20583;-71
2023/08/03 07:14:54;;;;;;;2.20;1.27;;;24.20;54.30;;;;;;4994123;28;20173;-71
2023/08/03 07:17:20;;;;;;;6.07;1.40;;;24.30;54.40;;;;;;5011720;28;20446;-71
2023/08/03 07:19:51;;;;;;;3.73;1.60;;;24.30;54.30;;;;;;5011599;28;20429;-71
2023/08/03 07:22:20;;;;;;;3.70;1.10;;;24.30;54.30;;;;;;4994138;28;20953;-72
2023/08/03 07:24:45;;;;;;;2.17;1.10;;;24.30;54.30;;;;;;5011694;28;20411;-71
2023/08/03 07:27:11;;;;;;;3.87;1.10;;;24.30;54.20;;;;;;5011516;28;20978;-71
2023/08/03 07:29:37;;;;;;;1.83;1.50;;;24.30;54.20;;;;;;4993949;28;20731;-71
2023/08/03 07:32:03;;;;;;;3.30;1.30;;;24.30;54.20;;;;;;5011653;28;20200;-71
2023/08/03 07:34:29;;;;;;;1.70;1.03;;;24.40;54.30;;;;;;5011584;28;20177;-72
2023/08/03 07:36:56;;;;;;;2.33;1.03;;;24.40;54.20;;;;;;4996646;28;20473;-72
2023/08/03 07:39:22;;;;;;;5.00;1.17;;;24.40;54.30;;;;;;5014118;28;20478;-72
2023/08/03 07:41:48;;;;;;;4.33;1.10;;;24.40;54.30;;;;;;5014936;28;20455;-71
2023/08/03 07:44:15;;;;;;;1.50;1.10;;;24.40;54.30;;;;;;5014894;28;20176;-71
2023/08/03 07:46:41;;;;;;;3.17;1.20;;;24.40;54.20;;;;;;5014837;28;20564;-72
2023/08/03 07:49:06;;;;;;;3.07;1.70;;;24.40;54.20;;;;;;5014769;28;20438;-70
2023/08/03 07:51:32;;;;;;;3.63;1.40;;;24.40;54.20;;;;;;4981028;28;20196;-71
2023/08/03 07:53:58;;;;;;;1.67;1.33;;;24.40;54.20;;;;;;4997094;28;20173;-71
2023/08/03 07:56:23;;;;;;;1.93;1.00;;;24.40;54.20;;;;;;5014669;28;20181;-70
2023/08/03 07:58:50;;;;;;;3.80;1.13;;;24.40;54.20;;;;;;4996886;28;20207;-70
2023/08/03 08:01:17;;;;;;;6.63;1.40;;;24.40;54.20;;;;;;5014549;28;20238;-70
2023/08/03 08:03:43;;;;;;;2.47;1.10;;;24.40;54.20;;;;;;5014214;28;20415;-71
2023/08/03 08:06:10;;;;;;;2.17;1.30;;;24.50;54.20;;;;;;5014295;28;20493;-72
2023/08/03 08:08:37;;;;;;;3.33;1.10;;;24.50;54.20;;;;;;5014370;28;20450;-72
2023/08/03 08:11:03;;;;;;;2.50;1.50;;;24.50;54.20;;;;;;5014213;28;20410;-72
2023/08/03 08:13:29;;;;;;;1.93;0.90;;;24.50;54.20;;;;;;5014278;28;20431;-72
2023/08/03 08:16:02;;;;;;;2.70;1.00;;;24.50;54.20;;;;;;5014242;28;20781;-72
2023/08/03 08:18:29;;;;;;;3.20;1.43;;;24.50;54.20;;;;;;5014221;28;20930;-73
2023/08/03 08:20:59;;;;;;;4.77;1.10;;;24.50;54.20;;;;;;5013319;28;20435;-72
2023/08/03 08:23:25;;;;;;;2.10;1.07;;;24.50;54.20;;;;;;5014169;28;20494;-72
2023/08/03 08:25:51;;;;;;;6.23;1.50;;;24.50;54.10;;;;;;5014064;28;20498;-72
2023/08/03 08:28:17;;;;;;;2.03;1.10;;;24.50;54.20;;;;;;5013913;28;20181;-71
2023/08/03 08:30:44;;;;;;;3.30;1.10;;;24.50;54.10;;;;;;5014069;28;20195;-72
2023/08/03 08:33:10;;;;;;;1.67;0.90;;;24.50;54.10;;;;;;5013898;28;20419;-72
2023/08/03 08:35:35;;;;;;;1.60;1.23;;;24.50;54.10;;;;;;5013951;28;20474;-72
2023/08/03 08:38:04;;;;;;;7.03;1.30;;;24.50;54.10;;;;;;4996245;28;20407;-71
2023/08/03 08:40:30;;;;;;;2.17;0.90;;;24.60;54.10;;;;;;5013623;28;20239;-71
2023/08/03 08:42:56;;;;;;;2.23;1.00;;;24.60;54.10;;;;;;4996183;28;20443;-72
2023/08/03 08:45:22;;;;;;;3.37;1.40;;;24.60;54.10;;;;;;4996416;28;20185;-72
2023/08/03 08:47:48;;;;;;;2.07;1.00;;;24.60;54.00;;;;;;5012968;28;20451;-73
2023/08/03 08:50:14;;;;;;;2.90;1.03;;;24.60;54.00;;;;;;5013576;28;20278;-73
2023/08/03 08:52:44;;;;;;;4.40;1.10;;;24.60;54.00;;;;;;5013509;28;20245;-72
2023/08/03 08:55:24;;;;;;;2.00;1.17;;;24.60;54.00;;;;;;5013882;28;20422;-72
2023/08/03 08:57:51;;;;;;;2.63;0.90;;;24.60;53.90;;;;;;5013511;28;20880;-71
2023/08/03 09:00:17;;;;;;;1.87;1.00;;;24.60;54.00;;;;;;5013387;28;20526;-72
2023/08/03 09:02:42;;;;;;;1.63;1.00;;;24.60;53.90;;;;;;5013453;28;20407;-72
2023/08/03 09:05:22;;;;;;;1.50;0.80;;;24.60;53.90;;;;;;5013443;28;20590;-72
2023/08/03 09:08:04;;;;;;;1.93;0.90;;;24.60;53.90;;;;;;5013424;28;20195;-72
2023/08/03 09:10:31;;;;;;;4.50;1.10;;;24.60;53.90;;;;;;4995665;28;20470;-72
2023/08/03 09:13:00;;;;;;;1.87;0.90;;;24.60;53.90;;;;;;5013277;28;20458;-69
2023/08/03 09:15:42;;;;;;;3.13;1.00;;;24.60;53.80;;;;;;5013436;28;20411;-70
2023/08/03 09:18:08;;;;;;;2.60;0.90;;;24.60;53.80;;;;;;5013349;28;20835;-70
2023/08/03 09:20:34;;;;;;;2.00;0.90;;;24.60;53.80;;;;;;5013072;28;20522;-70
2023/08/03 09:23:01;;;;;;;1.57;0.80;;;24.60;53.70;;;;;;5013139;28;20171;-70
2023/08/03 09:25:27;;;;;;;2.30;1.30;;;24.60;53.70;;;;;;4995317;28;20762;-70
2023/08/03 09:27:55;;;;;;;2.30;0.90;;;24.60;53.70;;;;;;5013129;28;20459;-69
2023/08/03 09:30:22;;;;;;;2.90;1.17;;;24.60;53.70;;;;;;5012888;28;20948;-69
2023/08/03 09:32:48;;;;;;;1.63;0.90;;;24.60;53.70;;;;;;5012897;28;20410;-68
2023/08/03 09:35:19;;;;;;;1.70;1.07;;;24.60;53.70;;;;;;5012846;28;20415;-69
2023/08/03 09:37:45;;;;;;;1.83;0.70;;;24.60;53.70;;;;;;5012751;28;20412;-68
2023/08/03 09:40:11;;;;;;;1.60;0.80;;;24.60;53.80;;;;;;5013009;28;20459;-69
2023/08/03 09:42:37;;;;;;;1.70;1.10;;;24.60;53.80;;;;;;5012797;28;20407;-69
2023/08/03 09:45:05;;;;;;;1.40;0.90;;;24.60;53.80;;;;;;5012695;28;20169;-71
2023/08/03 09:47:31;;;;;;;2.20;1.07;;;24.70;54.40;;;;;;5012526;28;20447;-69
2023/08/03 09:49:57;;;;;;;1.57;0.90;;;24.70;53.90;;;;;;5012516;28;20462;-69
2023/08/03 09:52:26;;;;;;;2.27;0.93;;;24.70;53.90;;;;;;5012529;28;20637;-69
2023/08/03 09:55:06;;;;;;;1.60;1.07;;;24.70;53.90;;;;;;5012537;28;20201;-68
2023/08/03 09:57:40;;;;;;;1.53;0.87;;;24.70;53.90;;;;;;4994772;28;20408;-69
2023/08/03 10:00:07;;;;;;;1.20;0.70;;;24.70;53.90;;;;;;5011537;28;20433;-68
2023/08/03 10:02:43;;;;;;;1.33;1.03;;;24.70;54.50;;;;;;5012064;28;20407;-70
2023/08/03 10:05:12;;;;;;;1.23;1.13;;;24.70;53.90;;;;;;4992726;28;20435;-69
2023/08/03 10:07:50;;;;;;;1.20;0.77;;;24.70;53.90;;;;;;5012013;28;20532;-69
2023/08/03 10:10:20;;;;;;;1.53;0.80;;;24.70;54.00;;;;;;5011983;28;20435;-70
2023/08/03 10:12:56;;;;;;;1.63;0.90;;;24.70;53.90;;;;;;5011770;28;20414;-69
2023/08/03 10:15:23;;;;;;;1.90;0.90;;;24.80;54.00;;;;;;5011293;28;20774;-68
2023/08/03 10:17:49;;;;;;;2.70;0.80;;;24.80;54.00;;;;;;5012399;28;20416;-67
2023/08/03 10:20:16;;;;;;;1.10;0.90;;;24.80;54.10;;;;;;5011856;28;20451;-69
2023/08/03 10:23:18;;;;;;;2.30;0.87;;;24.80;54.10;;;;;;5012193;28;20407;-71
2023/08/03 10:25:57;;;;;;;1.70;0.80;;;24.80;54.10;;;;;;5008025;28;20458;-69
2023/08/03 10:28:23;;;;;;;1.60;0.83;;;24.80;54.10;;;;;;4994313;28;20423;-69
2023/08/03 10:31:04;;;;;;;1.30;0.80;;;24.80;54.10;;;;;;5012017;28;20403;-68
2023/08/03 10:33:51;;;;;;;1.90;0.90;;;24.80;54.10;;;;;;4994320;28;20405;-68
2023/08/03 10:36:26;;;;;;;2.07;0.90;;;24.80;54.10;;;;;;5011954;28;20419;-69
2023/08/03 10:38:58;;;;;;;1.30;0.90;;;24.80;54.10;;;;;;5012162;28;20462;-68
2023/08/03 10:41:26;;;;;;;1.20;0.97;;;24.80;54.10;;;;;;5011887;28;20431;-69
2023/08/03 10:44:14;;;;;;;2.53;1.27;;;24.80;54.00;;;;;;5011919;28;20848;-68
2023/08/03 10:46:47;;;;;;;1.57;0.93;;;24.80;54.00;;;;;;4999034;28;20998;-70
2023/08/03 10:49:19;;;;;;;1.73;0.70;;;24.80;54.10;;;;;;5012075;28;20798;-67
2023/08/03 10:51:45;;;;;;;1.10;0.97;;;24.80;54.00;;;;;;5011014;28;20414;-69
2023/08/03 10:54:11;;;;;;;2.17;0.80;;;24.80;54.00;;;;;;5011551;28;20426;-71
2023/08/03 10:56:37;;;;;;;3.03;0.80;;;24.80;54.00;;;;;;5012048;28;20419;-68
2023/08/03 10:59:03;;;;;;;2.40;0.90;;;24.80;54.00;;;;;;5011064;28;20788;-69
2023/08/03 11:01:30;;;;;;;1.50;0.90;;;24.80;54.00;;;;;;5010310;28;20688;-67
2023/08/03 11:03:56;;;;;;;1.37;0.80;;;24.90;54.10;;;;;;5009900;28;20769;-69
2023/08/03 11:06:23;;;;;;;1.20;0.97;;;24.90;54.10;;;;;;5009830;28;20491;-67
2023/08/03 11:08:49;;;;;;;1.33;0.80;;;24.90;54.00;;;;;;5010034;28;20665;-69
2023/08/03 11:11:21;;;;;;;1.80;1.20;;;24.90;54.10;;;;;;5012503;28;21181;-72
2023/08/03 11:13:48;;;;;;;1.30;1.00;;;24.90;54.10;;;;;;5015348;28;20410;-69
2023/08/03 11:16:18;;;;;;;3.93;1.63;;;24.80;54.00;;;;;;5014328;28;20827;-70
2023/08/03 11:18:48;;;;;;;1.60;1.00;;;24.90;54.10;;;;;;5015413;28;20454;-69
2023/08/03 11:21:14;;;;;;;1.00;0.80;;;24.90;54.10;;;;;;5013527;28;20493;-70
2023/08/03 11:23:40;;;;;;;2.73;1.03;;;24.90;54.10;;;;;;5015022;28;20822;-69
2023/08/03 11:26:08;;;;;;;1.50;0.97;;;24.90;54.10;;;;;;5015147;28;20473;-69
2023/08/03 11:28:41;;;;;;;2.57;1.13;;;24.90;54.10;;;;;;4997458;28;20199;-69
2023/08/03 11:31:20;;;;;;;1.37;0.93;;;24.90;54.10;;;;;;5015169;28;20484;-69
2023/08/03 11:33:53;;;;;;;5.40;0.87;;;24.80;54.00;;;;;;5015096;28;20411;-69
2023/08/03 11:36:20;;;;;;;1.50;0.93;;;24.90;54.10;;;;;;5015014;28;20416;-69
2023/08/03 11:38:47;;;;;;;2.50;1.00;;;24.90;54.20;;;;;;5015181;28;20435;-68
2023/08/03 11:41:14;;;;;;;1.57;1.00;;;24.80;54.00;;;;;;5014866;28;20497;-69
2023/08/03 11:43:40;;;;;;;1.40;0.90;;;24.80;54.60;;;;;;5014919;28;20825;-68
2023/08/03 11:46:06;;;;;;;1.40;1.10;;;24.90;54.20;;;;;;4997101;28;20415;-69
2023/08/03 11:48:32;;;;;;;0.97;0.70;;;24.90;54.20;;;;;;5014842;28;20403;-70
2023/08/03 11:51:01;;;;;;;1.50;0.80;;;24.80;54.00;;;;;;5014822;28;20176;-69
2023/08/03 11:53:29;;;;;;;3.60;1.20;;;24.90;54.10;;;;;;5014804;28;20248;-67
2023/08/03 11:55:57;;;;;;;1.27;0.90;;;24.80;54.00;;;;;;4996807;28;20411;-67
2023/08/03 11:58:24;;;;;;;2.30;1.00;;;24.90;54.10;;;;;;5014629;28;20407;-72
2023/08/03 12:00:55;;;;;;;1.70;1.17;;;24.80;54.00;;;;;;5014589;28;20960;-70
2023/08/03 12:03:36;;;;;;;3.70;1.57;;;24.90;54.20;;;;;;5014619;28;20435;-70
2023/08/03 12:06:05;;;;;;;2.13;1.40;;;24.80;54.00;;;;;;4996002;28;20431;-69
2023/08/03 12:08:44;;;;;;;4.87;1.63;;;24.80;54.00;;;;;;5014205;28;20472;-73
2023/08/03 12:11:10;;;;;;;4.20;2.03;;;24.80;54.00;;;;;;5012485;28;20395;-73
2023/08/03 12:13:36;;;;;;;4.50;2.20;;;24.90;54.10;;;;;;5012339;28;20408;-73
2023/08/03 12:16:02;;;;;;;4.60;2.20;;;24.80;54.00;;;;;;4995954;28;20418;-72
2023/08/03 12:18:31;;;;;;;8.63;3.27;;;24.80;54.00;;;;;;5014209;28;20177;-72
2023/08/03 12:20:57;;;;;;;5.40;2.23;;;24.80;54.00;;;;;;5014453;28;20415;-72
2023/08/03 12:23:22;;;;;;;9.60;2.67;;;24.80;54.00;;;;;;5013382;28;20411;-73
2023/08/03 12:25:48;;;;;;;7.00;2.83;;;24.80;54.00;;;;;;4996632;28;20544;-73
2023/08/03 12:28:14;;;;;;;6.47;2.53;;;24.80;54.00;;;;;;5013955;28;20179;-72
2023/08/03 12:30:40;;;;;;;9.10;3.03;;;24.80;54.00;;;;;;5014020;28;20254;-72
2023/08/03 12:33:07;;;;;;;5.17;2.83;;;24.80;54.00;;;;;;5014351;28;20183;-73
2023/08/03 12:35:33;;;;;;;8.00;3.00;;;24.80;54.00;;;;;;5014215;28;20457;-73
2023/08/03 12:37:59;;;;;;;6.47;2.90;;;24.80;54.00;;;;;;5013797;28;20439;-73
2023/08/03 12:40:26;;;;;;;5.27;2.60;;;24.80;54.00;;;;;;5013730;28;20453;-72
2023/08/03 12:42:51;;;;;;;5.17;2.70;;;24.80;54.00;;;;;;5013775;28;20682;-72
2023/08/03 12:45:17;;;;;;;5.23;2.90;;;24.80;54.00;;;;;;5013812;28;20503;-72
2023/08/03 12:47:42;;;;;;;6.30;2.73;;;24.80;54.10;;;;;;5011977;28;20578;-72
2023/08/03 12:50:09;;;;;;;4.37;2.20;;;24.80;54.10;;;;;;5013396;28;20188;-72
2023/08/03 12:52:34;;;;;;;5.80;2.60;;;24.80;54.10;;;;;;5013155;28;20493;-72